Doubs, Maryland
Current Conditions -  °F | °C
As of 1:45 PM on Monday 20 Oct 2014 (Local Time) from KFDK Reporting Station
Clear Clear  
Wind Chill: 66°   Ceiling: Unl
Heat Index: 66°   Visibility: 10mi
Dew Point: 37°   Wind: 9mph
Humidity: 35%   Direction: 240°WSW
Pressure: 30.01"   Gusts: NA
Location:  39.293°N, 77.4503°W
Report Text: KFDK 201745Z 24008KT 10SM SKC 19/03 A3001
Loading
Personal Weather Stations






























Interactive Weather Map
Tropical Storm Tracking
New forecast layout! Learn more

10-Day Weather Forecast

Advertisements
Track Severe Weather on mobile